Time;durP1;ratioP1;P1;durP2;ratioP2;P2;SDS_P1;SDS_P2;PMS_P1;PMS_P2;Temp;Humidity;BMP_temperature;BMP_pressure;BME280_temperature;BME280_humidity;BME280_pressure;Samples;Min_cycle;Max_cycle;Signal;HPM_P1;HPM_P2
2021/08/03 00:02:26;;;;;;;2.47;2.20;;;;;;;16.13;86.59;99112.03;1702350;84;20955;-65
2021/08/03 00:04:55;;;;;;;4.40;2.50;;;;;;;16.09;86.67;99109.77;1702495;84;21574;-65
2021/08/03 00:07:23;;;;;;;2.55;2.02;;;;;;;16.05;86.72;99107.51;1712862;83;20992;-65
2021/08/03 00:09:51;;;;;;;4.30;2.27;;;;;;;16.01;86.66;99110.20;1702628;83;21087;-65
2021/08/03 00:12:18;;;;;;;6.90;2.27;;;;;;;15.95;86.89;99110.27;1702477;82;21087;-64
2021/08/03 00:14:50;;;;;;;8.98;2.22;;;;;;;15.93;87.32;99115.94;1702507;84;20931;-64
2021/08/03 00:17:23;;;;;;;8.85;2.20;;;;;;;15.87;87.64;99113.23;1702460;83;21090;-64
2021/08/03 00:19:51;;;;;;;5.33;2.72;;;;;;;15.81;88.02;99121.81;1702561;83;21546;-64
2021/08/03 00:22:20;;;;;;;4.33;2.02;;;;;;;15.76;88.51;99121.28;1702659;84;20972;-64
2021/08/03 00:24:47;;;;;;;12.80;2.27;;;;;;;15.73;88.63;99120.05;1689814;84;21087;-65
2021/08/03 00:27:13;;;;;;;6.40;2.40;;;;;;;15.68;88.63;99121.70;1703438;84;21553;-66
2021/08/03 00:29:40;;;;;;;5.87;2.98;;;;;;;15.65;88.60;99120.23;1703565;84;20969;-65
2021/08/03 00:32:09;;;;;;;3.87;2.08;;;;;;;15.59;88.60;99122.50;1703526;84;21411;-64
2021/08/03 00:34:37;;;;;;;3.70;2.30;;;;;;;15.54;88.75;99118.59;1703450;83;20911;-64
2021/08/03 00:37:07;;;;;;;3.80;2.90;;;;;;;15.49;88.70;99122.44;1703610;84;21060;-65
2021/08/03 00:39:38;;;;;;;2.75;2.00;;;;;;;15.44;88.61;99128.82;1703414;84;20991;-64
2021/08/03 00:42:06;;;;;;;5.00;2.12;;;;;;;15.37;88.47;99127.27;1703679;84;20889;-64
2021/08/03 00:44:47;;;;;;;3.40;2.17;;;;;;;15.32;88.36;99119.23;1703548;84;20896;-64
2021/08/03 00:47:18;;;;;;;3.05;1.98;;;;;;;15.27;88.57;99129.18;1703217;83;21447;-64
2021/08/03 00:49:45;;;;;;;5.67;2.50;;;;;;;15.18;88.91;99126.02;1703512;84;21790;-65
2021/08/03 00:52:14;;;;;;;3.85;2.45;;;;;;;15.15;89.35;99136.41;1704227;81;21033;-65
2021/08/03 00:54:42;;;;;;;5.33;2.80;;;;;;;15.09;89.61;99125.96;1711291;83;20941;-65
2021/08/03 00:57:11;;;;;;;4.40;2.20;;;;;;;15.08;89.93;99127.12;1745941;82;20925;-65
2021/08/03 00:59:38;;;;;;;5.20;2.50;;;;;;;15.06;90.15;99131.63;1745556;82;20854;-65
2021/08/03 01:02:07;;;;;;;2.90;2.27;;;;;;;15.07;90.40;99139.33;1745517;82;21087;-66
2021/08/03 01:04:35;;;;;;;4.70;2.70;;;;;;;15.06;90.44;99139.91;1728425;82;21016;-65
2021/08/03 01:07:28;;;;;;;6.22;2.47;;;;;;;15.05;90.54;99136.92;1745632;81;20901;-65
2021/08/03 01:10:10;;;;;;;3.52;2.60;;;;;;;15.06;90.66;99141.88;1745696;81;20901;-64
2021/08/03 01:13:02;;;;;;;5.23;2.77;;;;;;;15.05;90.85;99143.84;1703443;81;20924;-65
2021/08/03 01:15:53;;;;;;;4.95;3.10;;;;;;;15.06;90.95;99145.44;1745817;82;21187;-63
2021/08/03 01:18:41;;;;;;;6.17;2.95;;;;;;;15.07;90.90;99145.66;1730782;82;21622;-63
2021/08/03 01:21:46;;;;;;;2.60;2.30;;;;;;;15.04;90.66;99147.76;1750292;82;21036;-63
2021/08/03 01:24:27;;;;;;;8.85;2.70;;;;;;;15.01;90.66;99148.50;1750351;82;20933;-63
2021/08/03 01:27:20;;;;;;;4.20;2.95;;;;;;;14.94;90.76;99153.03;1700209;82;20960;-64
2021/08/03 01:29:48;;;;;;;3.30;2.60;;;;;;;14.87;91.16;99153.64;1750394;81;21145;-63
2021/08/03 01:32:23;;;;;;;4.33;2.95;;;;;;;14.85;91.34;99155.37;1750313;82;21464;-63
2021/08/03 01:34:49;;;;;;;4.90;2.40;;;;;;;14.80;91.29;99153.45;1750333;82;21424;-63
2021/08/03 01:37:18;;;;;;;4.90;3.00;;;;;;;14.76;91.41;99159.45;1750418;82;20969;-65
2021/08/03 01:39:58;;;;;;;4.95;2.60;;;;;;;14.74;91.65;99165.91;1750372;82;20933;-63
2021/08/03 01:42:26;;;;;;;4.37;2.67;;;;;;;14.72;91.85;99170.98;1750393;81;21160;-62
2021/08/03 01:44:53;;;;;;;5.42;3.00;;;;;;;14.70;91.88;99174.09;1750218;82;20977;-62
2021/08/03 01:47:24;;;;;;;4.15;2.60;;;;;;;14.67;91.97;99174.80;1760835;81;20929;-63
2021/08/03 01:49:51;;;;;;;9.18;3.40;;;;;;;14.67;92.17;99175.38;1735498;81;21475;-63
2021/08/03 01:52:18;;;;;;;9.93;2.83;;;;;;;14.66;92.13;99177.34;1761242;81;20853;-63
2021/08/03 01:54:47;;;;;;;3.45;2.67;;;;;;;14.65;92.05;99184.02;1761057;81;21159;-63
2021/08/03 01:57:16;;;;;;;4.78;3.02;;;;;;;14.66;92.44;99189.77;1736065;81;20928;-63
2021/08/03 01:59:44;;;;;;;5.55;2.83;;;;;;;14.70;92.53;99196.77;1735902;81;21024;-64
2021/08/03 02:02:14;;;;;;;4.83;3.00;;;;;;;14.72;92.44;99191.70;1761371;81;21480;-63
2021/08/03 02:04:43;;;;;;;4.62;3.08;;;;;;;14.73;92.11;99196.88;1760932;81;21487;-63
2021/08/03 02:07:09;;;;;;;3.15;2.80;;;;;;;14.74;92.23;99199.06;1761256;81;21445;-64
2021/08/03 02:09:38;;;;;;;7.70;3.27;;;;;;;14.75;92.19;99196.53;1760981;81;21428;-63
2021/08/03 02:12:07;;;;;;;5.28;3.15;;;;;;;14.76;92.02;99200.31;1760994;81;20904;-64
2021/08/03 02:14:36;;;;;;;3.33;2.95;;;;;;;14.76;91.93;99203.08;1760975;81;20933;-63
2021/08/03 02:17:05;;;;;;;5.10;2.80;;;;;;;14.76;91.78;99209.98;1760889;81;20917;-65
2021/08/03 02:19:37;;;;;;;3.50;2.83;;;;;;;14.76;91.73;99213.33;1760263;81;21158;-63
2021/08/03 02:22:05;;;;;;;10.55;3.58;;;;;;;14.72;91.55;99219.33;1761334;81;21440;-63
2021/08/03 02:24:33;;;;;;;4.42;2.87;;;;;;;14.66;91.42;99217.39;1736016;81;20984;-64
2021/08/03 02:27:01;;;;;;;7.92;3.10;;;;;;;14.61;91.59;99215.45;1761183;81;21527;-64
2021/08/03 02:29:29;;;;;;;3.45;2.87;;;;;;;14.53;91.88;99215.25;1760945;81;20881;-64
2021/08/03 02:32:04;;;;;;;8.70;2.77;;;;;;;14.52;92.23;99215.59;1761117;81;21110;-64
2021/08/03 02:34:42;;;;;;;3.02;2.70;;;;;;;14.50;92.35;99215.14;1760960;81;20893;-64
2021/08/03 02:37:12;;;;;;;5.15;2.95;;;;;;;14.48;92.46;99222.39;1761098;81;20873;-64
2021/08/03 02:39:40;;;;;;;5.80;2.87;;;;;;;14.48;92.46;99220.21;1761181;81;20917;-64
2021/08/03 02:42:08;;;;;;;6.42;3.00;;;;;;;14.45;92.36;99225.05;1735657;81;21488;-64
2021/08/03 02:44:36;;;;;;;4.25;2.62;;;;;;;14.41;92.34;99225.52;1761171;81;21122;-64
2021/08/03 02:47:17;;;;;;;8.00;2.52;;;;;;;14.36;92.58;99222.42;1760943;81;20936;-64
2021/08/03 02:49:46;;;;;;;3.58;2.95;;;;;;;14.33;92.75;99225.07;1734494;81;21532;-64
2021/08/03 02:52:05;;;;;;;4.75;2.80;;;;;;;14.30;92.86;99227.95;1759810;81;20972;-64
2021/08/03 02:54:36;;;;;;;4.87;3.00;;;;;;;14.28;93.10;99227.50;1761263;81;20944;-64
2021/08/03 02:57:07;;;;;;;4.45;2.87;;;;;;;14.25;93.41;99226.81;1761233;81;21160;-64
2021/08/03 02:59:36;;;;;;;3.90;2.80;;;;;;;14.25;93.69;99222.67;1761216;81;21009;-65
2021/08/03 03:02:08;;;;;;;5.58;2.65;;;;;;;14.25;94.06;99228.19;1735695;81;21005;-64
2021/08/03 03:04:43;;;;;;;4.03;2.70;;;;;;;14.28;94.31;99233.02;1735848;81;20928;-64
2021/08/03 03:07:17;;;;;;;9.35;3.10;;;;;;;14.30;94.73;99236.23;1760980;81;20984;-63
2021/08/03 03:09:44;;;;;;;3.67;2.80;;;;;;;14.39;95.25;99241.05;1761158;80;21129;-63
2021/08/03 03:12:12;;;;;;;4.35;3.33;;;;;;;14.47;95.38;99242.88;1760845;81;20988;-63
2021/08/03 03:14:41;;;;;;;4.53;2.90;;;;;;;14.55;95.61;99248.04;1760831;81;20941;-64
2021/08/03 03:17:08;;;;;;;4.80;2.85;;;;;;;14.63;95.78;99244.91;1735584;81;20996;-64
2021/08/03 03:19:37;;;;;;;2.95;2.45;;;;;;;14.70;95.85;99252.03;1737669;81;20845;-64
2021/08/03 03:22:05;;;;;;;6.20;2.72;;;;;;;14.78;95.84;99255.23;1761605;81;21829;-64
2021/08/03 03:24:35;;;;;;;4.20;2.55;;;;;;;14.85;95.86;99254.86;1761651;81;20892;-64
2021/08/03 03:27:03;;;;;;;3.90;2.40;;;;;;;14.93;95.64;99257.25;1761446;81;20989;-64
2021/08/03 03:29:31;;;;;;;4.78;2.72;;;;;;;15.01;95.36;99260.45;1761642;81;20901;-64
2021/08/03 03:31:58;;;;;;;4.42;3.20;;;;;;;15.08;95.11;99257.85;1761467;81;20846;-64
2021/08/03 03:34:25;;;;;;;4.47;3.02;;;;;;;15.15;94.72;99264.96;1761595;81;21079;-64
2021/08/03 03:36:52;;;;;;;4.17;2.95;;;;;;;15.22;94.47;99268.50;1761530;81;20985;-64
2021/08/03 03:39:20;;;;;;;4.40;3.27;;;;;;;15.28;94.18;99271.81;1761909;81;20897;-64
2021/08/03 03:41:56;;;;;;;4.60;2.95;;;;;;;15.34;93.86;99275.94;1745592;81;20886;-64
2021/08/03 03:44:23;;;;;;;3.83;3.35;;;;;;;15.40;93.46;99278.67;1728973;82;21492;-64
2021/08/03 03:47:00;;;;;;;5.17;3.15;;;;;;;15.44;93.29;99283.72;1745536;82;21583;-64
2021/08/03 03:49:35;;;;;;;4.92;2.87;;;;;;;15.51;93.34;99285.30;1745933;82;21400;-64
2021/08/03 03:52:03;;;;;;;4.35;3.05;;;;;;;15.57;92.64;99285.30;1745620;82;21033;-64
2021/08/03 03:54:35;;;;;;;5.83;2.87;;;;;;;15.61;92.41;99280.62;1745676;82;21016;-64
2021/08/03 03:57:04;;;;;;;3.70;3.10;;;;;;;15.66;92.45;99281.75;1744820;81;21488;-64
2021/08/03 03:59:33;;;;;;;5.12;3.27;;;;;;;15.73;91.92;99272.25;1745984;82;21830;-64
2021/08/03 04:02:02;;;;;;;5.72;3.42;;;;;;;15.79;91.49;99277.73;1729031;82;21335;-64
2021/08/03 04:04:30;;;;;;;4.95;3.52;;;;;;;15.84;90.74;99281.62;1745675;81;20854;-64
2021/08/03 04:06:59;;;;;;;7.20;3.92;;;;;;;15.88;90.34;99285.87;1745929;81;21409;-64
2021/08/03 04:09:26;;;;;;;6.67;3.70;;;;;;;15.92;89.82;99277.66;1745769;81;20893;-64
2021/08/03 04:11:55;;;;;;;5.17;3.08;;;;;;;15.95;89.47;99280.52;1745448;81;21141;-64
2021/08/03 04:14:25;;;;;;;7.60;3.50;;;;;;;15.99;89.14;99284.75;1745317;81;21005;-65
2021/08/03 04:16:55;;;;;;;5.50;3.57;;;;;;;16.04;89.15;99285.86;1746146;82;20922;-64
2021/08/03 04:19:22;;;;;;;6.50;3.30;;;;;;;16.10;88.75;99284.44;1745277;82;20894;-65
2021/08/03 04:21:49;;;;;;;5.45;3.42;;;;;;;16.15;88.49;99284.16;1745744;82;21433;-65
2021/08/03 04:24:16;;;;;;;5.03;3.60;;;;;;;16.23;88.31;99287.88;1745558;82;20998;-64
2021/08/03 04:26:44;;;;;;;3.87;3.47;;;;;;;16.30;88.16;99290.81;1745746;82;21048;-68
2021/08/03 04:29:11;;;;;;;10.58;4.17;;;;;;;16.38;88.81;99287.85;1745713;82;20933;-64
2021/08/03 04:31:38;;;;;;;4.92;3.55;;;;;;;16.46;88.10;99291.01;1745710;82;20933;-64
2021/08/03 04:34:04;;;;;;;7.67;3.65;;;;;;;16.54;87.48;99296.72;1745752;82;20934;-72
2021/08/03 04:36:31;;;;;;;6.95;3.77;;;;;;;16.60;86.86;99297.45;1745600;82;21107;-72
2021/08/03 04:38:57;;;;;;;5.20;3.87;;;;;;;16.68;87.04;99297.88;1745615;82;20873;-71
2021/08/03 04:41:24;;;;;;;5.17;4.03;;;;;;;16.78;87.21;99300.63;1745532;81;20972;-76
2021/08/03 04:43:51;;;;;;;4.72;4.20;;;;;;;16.87;86.62;99294.88;1745622;82;20973;-74
2021/08/03 04:46:18;;;;;;;5.53;4.58;;;;;;;16.95;85.66;99304.95;1745585;82;20917;-68
2021/08/03 04:48:45;;;;;;;6.80;3.87;;;;;;;17.01;85.64;99307.66;1734566;81;21140;-73
2021/08/03 04:51:12;;;;;;;6.80;4.58;;;;;;;17.11;85.50;99303.72;1718730;82;20937;-74
2021/08/03 04:53:39;;;;;;;5.33;3.80;;;;;;;17.19;85.48;99301.09;1736291;80;21052;-69
2021/08/03 04:56:05;;;;;;;8.33;4.05;;;;;;;17.38;86.18;99292.73;1733701;81;20933;-69
2021/08/03 04:58:32;;;;;;;7.03;4.30;;;;;;;17.57;85.03;99295.47;1687729;85;20988;-69
2021/08/03 05:00:59;;;;;;;6.03;4.05;;;;;;;17.69;83.42;99303.66;1716007;83;22125;-69
2021/08/03 05:03:25;;;;;;;10.20;4.95;;;;;;;17.77;82.99;99301.81;1715819;83;20942;-71
2021/08/03 05:05:52;;;;;;;8.40;4.58;;;;;;;17.80;82.59;99299.11;1687020;85;20960;-69
2021/08/03 05:08:20;;;;;;;18.37;4.87;;;;;;;17.89;83.28;99305.00;1716016;83;20953;-67
2021/08/03 05:10:47;;;;;;;6.25;4.75;;;;;;;17.98;81.57;99305.52;1721852;82;20929;-71
2021/08/03 05:13:13;;;;;;;8.70;4.55;;;;;;;18.01;80.69;99295.06;1726889;82;21105;-72
2021/08/03 05:15:40;;;;;;;7.58;4.60;;;;;;;18.01;80.92;99299.23;1715809;83;20877;-70
2021/08/03 05:18:07;;;;;;;6.37;4.45;;;;;;;18.06;80.34;99296.94;1715869;83;20893;-73
2021/08/03 05:20:34;;;;;;;4.83;4.22;;;;;;;18.12;80.18;99302.98;1728504;82;20940;-73
2021/08/03 05:23:01;;;;;;;8.88;4.65;;;;;;;18.22;80.70;99310.70;1730411;83;20932;-73
2021/08/03 05:25:28;;;;;;;13.88;4.90;;;;;;;18.39;80.22;99307.41;1730394;83;21092;-69
2021/08/03 05:27:54;;;;;;;6.95;4.45;;;;;;;18.51;79.51;99305.55;1741020;81;20940;-73
2021/08/03 05:30:21;;;;;;;6.40;4.40;;;;;;;18.60;79.26;99301.92;1752222;80;21534;-73
2021/08/03 05:32:48;;;;;;;9.13;4.45;;;;;;;18.73;79.09;99306.11;1737015;81;21008;-72
2021/08/03 05:35:15;;;;;;;6.85;4.15;;;;;;;18.82;77.72;99311.40;1729322;83;21004;-72
2021/08/03 05:37:41;;;;;;;7.95;5.12;;;;;;;18.88;77.64;99307.11;1729602;83;22177;-68
2021/08/03 05:40:12;;;;;;;8.15;4.05;;;;;;;18.96;77.57;99306.03;1729669;83;20984;-70
2021/08/03 05:42:39;;;;;;;6.70;4.80;;;;;;;19.04;77.28;99311.31;1747445;81;20921;-68
2021/08/03 05:45:10;;;;;;;6.15;4.55;;;;;;;19.11;76.65;99321.11;1730017;82;21090;-67
2021/08/03 05:47:38;;;;;;;5.50;4.42;;;;;;;19.16;75.85;99317.78;1730045;83;20932;-67
2021/08/03 05:50:06;;;;;;;8.98;5.28;;;;;;;19.17;76.31;99324.36;1734503;81;21741;-67
2021/08/03 05:52:33;;;;;;;6.60;4.47;;;;;;;19.25;76.28;99319.09;1743750;81;20972;-67
2021/08/03 05:55:00;;;;;;;21.48;5.35;;;;;;;19.37;76.19;99330.57;1730639;83;21410;-68
2021/08/03 05:57:30;;;;;;;5.85;3.98;;;;;;;19.44;75.26;99327.28;1734613;80;20897;-68
2021/08/03 05:59:55;;;;;;;7.47;4.92;;;;;;;19.53;74.99;99331.78;1743749;81;20888;-68
2021/08/03 06:02:22;;;;;;;6.12;4.60;;;;;;;19.59;73.55;99337.22;1730628;83;21122;-66
2021/08/03 06:04:49;;;;;;;7.92;4.97;;;;;;;19.65;74.56;99339.25;1730495;83;20924;-67
2021/08/03 06:07:17;;;;;;;8.23;4.45;;;;;;;19.73;72.17;99343.72;1730516;83;20941;-67
2021/08/03 06:09:44;;;;;;;7.47;4.05;;;;;;;19.74;72.07;99345.31;1730521;83;21004;-67
2021/08/03 06:12:11;;;;;;;5.65;4.08;;;;;;;19.77;71.68;99347.34;1730712;83;21519;-67
2021/08/03 06:14:44;;;;;;;5.45;4.33;;;;;;;19.88;72.23;99346.05;1734726;81;21531;-69
2021/08/03 06:17:15;;;;;;;8.48;4.72;;;;;;;20.05;71.41;99341.84;1744021;81;20996;-67
2021/08/03 06:19:49;;;;;;;6.37;4.42;;;;;;;20.18;72.28;99345.95;1733276;82;20928;-68
2021/08/03 06:22:17;;;;;;;8.95;4.33;;;;;;;20.35;71.49;99352.23;1747702;82;21430;-69
2021/08/03 06:24:47;;;;;;;4.92;4.15;;;;;;;20.41;70.47;99356.30;1748275;81;21510;-68
2021/08/03 06:27:19;;;;;;;9.08;4.85;;;;;;;20.40;69.81;99354.70;1751172;79;21142;-69
2021/08/03 06:29:47;;;;;;;8.23;5.15;;;;;;;20.42;69.28;99355.11;1754888;80;20956;-69
2021/08/03 06:32:14;;;;;;;5.22;4.37;;;;;;;20.48;69.86;99361.13;1767125;80;21507;-69
2021/08/03 06:34:46;;;;;;;7.50;4.65;;;;;;;20.57;68.91;99358.02;1768622;80;20998;-69
2021/08/03 06:37:13;;;;;;;4.67;4.20;;;;;;;20.64;68.89;99363.64;1753832;79;21011;-69
2021/08/03 06:39:41;;;;;;;10.38;4.80;;;;;;;20.76;68.97;99358.56;1765398;80;21202;-69
2021/08/03 06:42:42;;;;;;;6.28;4.20;;;;;;;20.90;67.87;99362.59;1779165;80;21558;-68
2021/08/03 06:45:30;;;;;;;4.40;3.98;;;;;;;20.97;67.54;99364.03;1769901;79;21637;-68
2021/08/03 06:48:20;;;;;;;6.97;4.28;;;;;;;20.97;67.21;99362.64;1770294;80;20935;-69
2021/08/03 06:51:06;;;;;;;10.35;4.58;;;;;;;20.99;67.16;99369.44;1773279;80;21420;-69
2021/08/03 06:53:37;;;;;;;4.87;4.00;;;;;;;21.07;67.53;99366.89;1718740;80;21196;-68
2021/08/03 06:56:05;;;;;;;4.87;3.90;;;;;;;21.19;66.39;99370.54;1776039;80;21526;-69
2021/08/03 06:58:48;;;;;;;5.37;3.55;;;;;;;21.28;64.26;99375.20;1752372;80;21475;-69
2021/08/03 07:01:35;;;;;;;5.47;3.80;;;;;;;21.33;65.10;99368.66;1748522;81;20967;-68
2021/08/03 07:04:03;;;;;;;4.20;3.80;;;;;;;21.47;65.93;99364.29;1748224;82;21026;-68
2021/08/03 07:06:32;;;;;;;5.30;3.98;;;;;;;21.67;64.67;99368.36;1748544;82;21168;-68
2021/08/03 07:09:05;;;;;;;4.72;4.03;;;;;;;21.79;63.86;99372.19;1747866;81;20852;-68
2021/08/03 07:11:33;;;;;;;6.35;3.83;;;;;;;21.81;63.18;99378.17;1721985;82;20935;-68
2021/08/03 07:14:01;;;;;;;5.12;3.90;;;;;;;21.90;64.55;99376.41;1747926;82;21502;-68
2021/08/03 07:16:28;;;;;;;4.50;3.42;;;;;;;22.04;63.13;99377.23;1748007;81;20915;-69
2021/08/03 07:18:58;;;;;;;6.37;3.58;;;;;;;22.09;61.58;99373.25;1764784;80;21171;-71
2021/08/03 07:21:26;;;;;;;6.47;3.80;;;;;;;22.15;61.99;99367.47;1759082;79;20916;-69
2021/08/03 07:23:56;;;;;;;4.60;3.45;;;;;;;22.26;61.40;99367.48;1774809;80;20971;-69
2021/08/03 07:26:25;;;;;;;6.35;3.12;;;;;;;22.40;60.93;99375.28;1758723;80;21012;-71
2021/08/03 07:28:51;;;;;;;6.28;3.05;;;;;;;22.51;59.99;99367.48;1776162;80;21003;-69
2021/08/03 07:31:18;;;;;;;5.67;3.80;;;;;;;22.52;60.19;99367.69;1761607;80;21180;-69
2021/08/03 07:33:45;;;;;;;4.85;3.05;;;;;;;22.60;60.87;99367.25;1752810;80;21746;-69
2021/08/03 07:36:17;;;;;;;18.82;3.92;;;;;;;22.78;58.52;99374.84;1767946;80;21033;-69
2021/08/03 07:38:44;;;;;;;5.10;3.67;;;;;;;22.81;59.22;99372.06;1771476;80;20928;-69
2021/08/03 07:41:10;;;;;;;4.42;3.33;;;;;;;22.90;58.82;99366.85;1779050;80;20884;-68
2021/08/03 07:43:37;;;;;;;4.22;3.25;;;;;;;23.04;58.27;99368.83;1765638;80;21420;-68
2021/08/03 07:46:03;;;;;;;6.10;3.50;;;;;;;23.08;56.75;99368.22;1760967;81;20968;-72
2021/08/03 07:48:30;;;;;;;4.62;3.40;;;;;;;23.22;58.45;99373.75;1760693;81;20877;-69
2021/08/03 07:50:58;;;;;;;211.00;162.92;;;;;;;23.50;54.56;99370.05;1760904;81;20908;-67
2021/08/03 07:53:24;;;;;;;14.60;9.80;;;;;;;23.66;55.38;99365.40;1761120;81;21550;-68
2021/08/03 07:55:51;;;;;;;86.90;60.58;;;;;;;23.81;55.64;99364.09;1761125;80;21066;-68
2021/08/03 07:58:18;;;;;;;38.25;26.20;;;;;;;23.95;54.89;99364.01;1763430;80;20896;-69
2021/08/03 08:00:44;;;;;;;5.25;4.45;;;;;;;24.03;53.00;99368.97;1765664;80;20970;-69
2021/08/03 08:03:11;;;;;;;5.97;3.17;;;;;;;24.12;52.09;99368.51;1748142;82;20939;-72
2021/08/03 08:05:39;;;;;;;8.30;2.90;;;;;;;24.19;52.37;99367.86;1764958;80;20995;-71
2021/08/03 08:08:08;;;;;;;6.15;4.53;;;;;;;24.27;52.99;99368.00;1770822;80;21003;-71
2021/08/03 08:10:36;;;;;;;13.25;9.05;;;;;;;24.45;51.91;99368.47;1760013;80;20983;-70
2021/08/03 08:13:04;;;;;;;4.05;3.10;;;;;;;24.68;49.39;99368.67;1766270;80;20923;-72
2021/08/03 08:15:31;;;;;;;8.65;2.70;;;;;;;24.97;49.05;99368.58;1754960;80;21018;-73
2021/08/03 08:17:57;;;;;;;3.67;2.92;;;;;;;25.33;48.65;99359.16;1761368;80;20888;-72
2021/08/03 08:20:25;;;;;;;3.60;2.30;;;;;;;25.52;47.84;99360.50;1770937;80;21138;-71
2021/08/03 08:22:51;;;;;;;8.70;2.45;;;;;;;25.65;48.24;99368.59;1751064;80;20980;-72
2021/08/03 08:25:18;;;;;;;4.97;2.58;;;;;;;25.85;46.82;99366.53;1742375;81;20888;-72
2021/08/03 08:27:44;;;;;;;2.65;1.95;;;;;;;26.09;45.43;99369.56;1733566;82;20937;-72
2021/08/03 08:30:12;;;;;;;7.20;5.40;;;;;;;26.34;44.57;99362.79;1715994;83;21547;-71
2021/08/03 08:32:42;;;;;;;5.47;4.22;;;;;;;26.62;43.99;99359.47;1716356;83;21773;-74
2021/08/03 08:35:09;;;;;;;4.70;2.67;;;;;;;26.88;42.72;99360.02;1726448;82;20992;-72
2021/08/03 08:37:36;;;;;;;3.40;2.12;;;;;;;27.13;42.16;99358.78;1724486;82;20883;-72
2021/08/03 08:40:07;;;;;;;13.22;8.50;;;;;;;27.32;42.84;99365.02;1745592;82;20934;-72
2021/08/03 08:42:34;;;;;;;12.33;8.13;;;;;;;27.48;41.23;99358.04;1745978;82;21532;-72
2021/08/03 08:45:01;;;;;;;4.95;2.37;;;;;;;27.47;41.47;99358.47;1737611;82;21495;-71
2021/08/03 08:47:27;;;;;;;3.30;1.92;;;;;;;27.46;41.48;99361.11;1729475;82;21468;-73
2021/08/03 08:49:55;;;;;;;2.75;2.00;;;;;;;27.40;41.32;99353.78;1729092;81;21011;-73
2021/08/03 08:52:22;;;;;;;3.20;2.25;;;;;;;27.49;40.75;99351.17;1735970;82;21576;-74
2021/08/03 08:54:48;;;;;;;7.17;3.42;;;;;;;27.51;41.72;99352.14;1745516;82;21552;-73
2021/08/03 08:57:15;;;;;;;5.05;2.00;;;;;;;27.63;41.42;99345.08;1745614;82;21003;-73
2021/08/03 08:59:42;;;;;;;2.58;1.98;;;;;;;27.80;40.73;99341.05;1745646;82;21445;-73
2021/08/03 09:02:10;;;;;;;6.78;2.55;;;;;;;27.64;39.25;99342.44;1746137;82;20965;-73
2021/08/03 09:04:43;;;;;;;2.08;1.85;;;;;;;27.09;40.18;99346.78;1734763;82;20886;-73
2021/08/03 09:07:09;;;;;;;2.75;2.17;;;;;;;26.88;41.22;99341.70;1716344;83;20901;-72
2021/08/03 09:09:44;;;;;;;3.33;2.00;;;;;;;27.12;41.52;99341.69;1716240;82;21086;-73
2021/08/03 09:12:12;;;;;;;3.33;1.95;;;;;;;27.44;39.93;99335.38;1716285;83;21579;-73
2021/08/03 09:14:42;;;;;;;8.45;2.22;;;;;;;27.58;40.40;99328.83;1716330;83;20980;-73
2021/08/03 09:17:10;;;;;;;7.60;2.40;;;;;;;27.80;40.23;99335.41;1715957;83;20874;-72
2021/08/03 09:19:42;;;;;;;5.50;2.77;;;;;;;28.08;41.23;99330.52;1716047;82;20925;-72
2021/08/03 09:22:23;;;;;;;5.50;5.00;;;;;;;28.27;39.92;99327.47;1730604;83;21553;-72
2021/08/03 09:25:10;;;;;;;4.20;2.08;;;;;;;28.16;39.02;99322.67;1730697;83;20922;-72
2021/08/03 09:27:42;;;;;;;3.15;2.05;;;;;;;28.18;37.66;99323.83;1741643;81;20971;-72
2021/08/03 09:30:26;;;;;;;2.25;2.00;;;;;;;28.42;38.94;99320.20;1689782;84;21016;-72
2021/08/03 09:32:53;;;;;;;2.30;2.10;;;;;;;28.69;38.33;99318.51;1770506;81;21055;-73
2021/08/03 09:35:22;;;;;;;3.83;2.37;;;;;;;28.85;37.52;99317.72;1770600;80;21124;-73
2021/08/03 09:37:49;;;;;;;3.55;2.27;;;;;;;28.81;36.55;99317.78;1770862;80;21497;-73
2021/08/03 09:40:33;;;;;;;2.22;1.90;;;;;;;28.54;37.50;99312.44;1746610;80;21008;-72
2021/08/03 09:43:04;;;;;;;2.98;2.00;;;;;;;28.46;39.72;99315.89;1749832;81;21496;-69
2021/08/03 09:45:47;;;;;;;7.97;2.67;;;;;;;28.51;37.66;99314.73;1752011;80;21006;-72
2021/08/03 09:48:18;;;;;;;3.75;2.27;;;;;;;28.50;37.55;99315.17;1764648;81;21760;-72
2021/08/03 09:51:00;;;;;;;2.17;1.98;;;;;;;28.22;38.12;99316.09;1769956;80;21012;-72
2021/08/03 09:53:51;;;;;;;2.10;1.90;;;;;;;28.16;39.21;99307.95;1770794;80;20922;-72
2021/08/03 09:56:34;;;;;;;16.15;2.65;;;;;;;28.35;40.71;99318.19;1770826;81;21088;-68
2021/08/03 09:59:04;;;;;;;4.10;1.85;;;;;;;28.72;39.79;99309.14;1764524;80;20981;-69
2021/08/03 10:01:41;;;;;;;4.03;2.00;;;;;;;28.99;35.58;99302.38;1756538;79;21222;-71
2021/08/03 10:04:11;;;;;;;4.67;2.05;;;;;;;29.09;36.49;99308.34;1756519;81;21514;-70
2021/08/03 10:06:40;;;;;;;3.00;1.90;;;;;;;29.09;36.10;99313.38;1764406;80;20933;-71
2021/08/03 10:09:10;;;;;;;2.25;1.85;;;;;;;29.18;35.62;99313.52;1759735;81;20980;-71
2021/08/03 10:11:38;;;;;;;1.90;1.70;;;;;;;29.35;35.34;99314.25;1759897;81;21408;-69
2021/08/03 10:14:05;;;;;;;3.70;2.15;;;;;;;29.46;34.81;99304.83;1689951;84;21108;-66
2021/08/03 10:16:32;;;;;;;3.58;2.50;;;;;;;29.53;35.69;99305.23;1759775;81;21585;-68
2021/08/03 10:19:04;;;;;;;3.98;2.20;;;;;;;29.53;35.56;99303.20;1763106;81;21491;-70
2021/08/03 10:21:42;;;;;;;2.93;1.93;;;;;;;29.59;35.61;99307.69;1751827;81;21033;-70
2021/08/03 10:24:29;;;;;;;6.33;2.22;;;;;;;29.42;34.94;99307.00;1747722;81;21528;-71
2021/08/03 10:27:12;;;;;;;2.90;2.33;;;;;;;29.43;36.23;99300.10;1693070;84;21183;-72
2021/08/03 10:29:53;;;;;;;5.45;2.50;;;;;;;29.53;36.55;99296.13;1751181;81;20969;-70
2021/08/03 10:32:43;;;;;;;2.35;1.85;;;;;;;29.61;35.87;99305.20;1727000;81;20870;-71
2021/08/03 10:35:16;;;;;;;3.50;2.35;;;;;;;29.69;36.62;99302.32;1759308;81;20996;-71
2021/08/03 10:38:04;;;;;;;3.40;2.08;;;;;;;29.49;34.66;99308.17;1742290;81;21099;-71
2021/08/03 10:40:56;;;;;;;2.40;1.65;;;;;;;29.20;35.24;99307.42;1729611;83;21160;-71
2021/08/03 10:43:37;;;;;;;5.28;1.92;;;;;;;29.27;35.55;99302.98;1737681;81;20937;-73
2021/08/03 10:46:16;;;;;;;3.33;2.30;;;;;;;29.62;35.73;99296.09;1751702;81;20945;-81
2021/08/03 10:48:43;;;;;;;21.37;3.33;;;;;;;29.87;34.12;99302.56;1762256;81;21037;-70
2021/08/03 10:51:23;;;;;;;2.58;2.37;;;;;;;29.84;35.91;99303.46;1763054;81;21017;-70
2021/08/03 10:54:12;;;;;;;5.15;2.10;;;;;;;29.86;34.95;99309.46;1760488;81;21223;-72
2021/08/03 10:57:02;;;;;;;3.08;1.98;;;;;;;29.86;34.22;99303.02;1740435;81;49480;-72
2021/08/03 10:59:36;;;;;;;1.87;1.65;;;;;;;29.85;34.54;99302.84;1759873;80;20924;-73
2021/08/03 11:02:07;;;;;;;3.00;1.95;;;;;;;29.89;33.39;99301.48;1760261;80;20989;-73
2021/08/03 11:04:55;;;;;;;2.92;1.98;;;;;;;29.93;33.13;99294.92;1760425;81;20993;-73
2021/08/03 11:07:32;;;;;;;3.05;1.95;;;;;;;30.03;33.93;99301.69;1760277;81;21167;-73
2021/08/03 11:10:10;;;;;;;2.25;1.50;;;;;;;30.06;34.10;99290.84;1760197;80;20989;-72
2021/08/03 11:12:49;;;;;;;3.98;2.10;;;;;;;30.21;33.01;99286.30;1757811;81;20932;-72
2021/08/03 11:15:33;;;;;;;2.35;2.00;;;;;;;30.22;34.37;99291.33;1760394;81;21079;-73
2021/08/03 11:18:09;;;;;;;2.60;1.95;;;;;;;30.21;33.50;99283.46;1739969;81;21547;-72
2021/08/03 11:20:45;;;;;;;3.67;2.00;;;;;;;30.19;33.47;99279.50;1731023;82;21130;-74
2021/08/03 11:23:16;;;;;;;2.22;1.95;;;;;;;29.93;33.20;99278.73;1752001;79;21512;-70
2021/08/03 11:25:46;;;;;;;4.95;1.67;;;;;;;29.41;34.23;99282.80;1753797;81;21078;-70
2021/08/03 11:28:22;;;;;;;3.52;1.87;;;;;;;28.89;35.14;99288.72;1766323;81;21087;-70
2021/08/03 11:30:51;;;;;;;3.30;1.70;;;;;;;28.44;35.35;99289.51;1766943;81;21004;-70
2021/08/03 11:33:19;;;;;;;3.85;1.87;;;;;;;28.09;37.17;99281.31;1771409;80;21139;-72
2021/08/03 11:35:47;;;;;;;4.55;2.00;;;;;;;27.95;37.71;99278.84;1770753;80;21044;-71
2021/08/03 11:38:19;;;;;;;2.72;1.80;;;;;;;27.91;36.46;99280.34;1748845;81;21524;-71
2021/08/03 11:40:47;;;;;;;2.02;1.70;;;;;;;27.88;37.61;99278.39;1747797;82;21539;-73
2021/08/03 11:43:13;;;;;;;3.92;2.00;;;;;;;27.88;36.77;99280.42;1749990;79;21514;-72
2021/08/03 11:45:40;;;;;;;4.33;2.20;;;;;;;27.82;37.79;99287.20;1760685;80;21155;-77
2021/08/03 11:48:23;;;;;;;1.90;1.80;;;;;;;27.88;37.72;99286.06;1774619;80;20880;-75
2021/08/03 11:50:49;;;;;;;4.08;2.37;;;;;;;27.85;38.49;99272.83;1765058;80;20896;-73